< < Back
Terminal Aerodrome Forecast


Current Version              Previous Versions:   1  2  3  4  5  6  7  8  9  

Terminal Aerodrome Forecast

740
FTUS44 KBMX 162300
TAFBHM
TAF
KBHM 162324Z 1700/1724 10005KT P6SM SKC
     FM171200 12008G16KT P6SM SCT050=

Latest METAR

993
SAUS70 KWBC 170056
MTRBHM
METAR KBHM 170053Z 00000KT 10SM CLR 16/M01 A3019 RMK AO2 SLP222
T01561006


USA.gov is the U.S. government's official web portal to all federal, state and local government web resources and services.